Time;durP1;ratioP1;P1;durP2;ratioP2;P2;SDS_P1;SDS_P2;PMS_P1;PMS_P2;Temp;Humidity;BMP_temperature;BMP_pressure;BME280_temperature;BME280_humidity;BME280_pressure;Samples;Min_cycle;Max_cycle;Signal;HPM_P1;HPM_P2
2023/06/25 00:02:03;;;;;;;0.10;0.10;;;17.90;99.90;;;;;;5106630;28;20312;-78
2023/06/25 00:04:28;;;;;;;0.10;0.10;;;17.80;99.90;;;;;;5109181;28;20274;-78
2023/06/25 00:06:54;;;;;;;0.10;0.10;;;17.70;99.90;;;;;;5108497;28;20631;-77
2023/06/25 00:09:19;;;;;;;0.10;0.10;;;17.60;99.90;;;;;;5110453;28;20217;-77
2023/06/25 00:11:45;;;;;;;0.10;0.10;;;17.60;99.90;;;;;;5106749;28;20199;-78
2023/06/25 00:14:11;;;;;;;0.10;0.10;;;17.50;99.90;;;;;;5091001;28;20184;-78
2023/06/25 00:16:36;;;;;;;0.10;0.10;;;17.50;99.90;;;;;;5107206;28;20199;-78
2023/06/25 00:19:03;;;;;;;0.10;0.10;;;17.50;99.90;;;;;;5110191;28;20441;-78
2023/06/25 00:21:29;;;;;;;0.10;0.10;;;17.50;99.90;;;;;;5108525;28;20224;-78
2023/06/25 00:23:55;;;;;;;0.10;0.10;;;17.40;99.90;;;;;;5110378;28;20446;-78
2023/06/25 00:26:20;;;;;;;0.10;0.10;;;17.40;99.90;;;;;;5108559;28;20583;-77
2023/06/25 00:28:46;;;;;;;0.10;0.10;;;17.30;99.90;;;;;;5122426;28;20624;-78
2023/06/25 00:31:14;;;;;;;0.10;0.10;;;17.30;99.90;;;;;;5115114;28;20185;-78
2023/06/25 00:33:42;;;;;;;0.10;0.10;;;17.30;99.90;;;;;;5099576;28;20189;-78
2023/06/25 00:36:07;;;;;;;0.10;0.10;;;17.30;99.90;;;;;;5109355;28;20888;-78
2023/06/25 00:38:35;;;;;;;0.10;0.10;;;17.30;99.90;;;;;;5108644;28;20925;-78
2023/06/25 00:41:00;;;;;;;0.10;0.10;;;17.20;99.90;;;;;;5091369;28;20216;-78
2023/06/25 00:43:26;;;;;;;0.10;0.10;;;17.10;99.90;;;;;;5110617;28;20486;-78
2023/06/25 00:45:51;;;;;;;0.10;0.10;;;17.10;99.90;;;;;;5107011;28;20604;-78
2023/06/25 00:48:17;;;;;;;0.10;0.10;;;17.10;99.90;;;;;;5110536;28;20259;-78
2023/06/25 00:50:43;;;;;;;0.10;0.10;;;17.10;99.90;;;;;;5111370;28;20184;-77
2023/06/25 00:53:09;;;;;;;0.10;0.10;;;17.00;99.90;;;;;;5098477;27;20197;-78
2023/06/25 00:55:35;;;;;;;0.10;0.10;;;17.00;99.90;;;;;;5102262;28;20253;-78
2023/06/25 00:58:01;;;;;;;0.10;0.10;;;17.00;99.90;;;;;;5112049;28;20822;-78
2023/06/25 01:00:28;;;;;;;0.10;0.10;;;16.90;99.90;;;;;;5089478;28;20507;-78
2023/06/25 01:03:26;;;;;;;0.10;0.10;;;16.80;99.90;;;;;;5092760;28;20200;-78
2023/06/25 01:05:58;;;;;;;0.10;0.10;;;16.90;99.90;;;;;;5106425;28;20445;-78
2023/06/25 01:08:28;;;;;;;0.10;0.10;;;16.90;99.90;;;;;;5113137;28;20442;-78
2023/06/25 01:10:54;;;;;;;0.10;0.10;;;16.90;99.90;;;;;;5123562;27;20436;-78
2023/06/25 01:13:20;;;;;;;0.10;0.10;;;16.80;99.90;;;;;;5109091;28;20478;-78
2023/06/25 01:15:45;;;;;;;0.10;0.10;;;16.80;99.90;;;;;;5093001;28;20465;-78
2023/06/25 01:18:13;;;;;;;0.10;0.10;;;16.70;99.90;;;;;;5106942;28;20373;-78
2023/06/25 01:20:40;;;;;;;0.10;0.10;;;16.70;99.90;;;;;;5093307;28;20217;-78
2023/06/25 01:23:07;;;;;;;0.10;0.10;;;16.50;99.90;;;;;;5103686;28;20468;-78
2023/06/25 01:25:36;;;;;;;0.10;0.10;;;16.50;99.90;;;;;;5111915;27;20450;-78
2023/06/25 01:28:02;;;;;;;0.10;0.10;;;16.50;99.90;;;;;;5112861;28;20438;-78
2023/06/25 01:30:31;;;;;;;0.10;0.10;;;16.50;99.90;;;;;;5092915;28;20442;-78
2023/06/25 01:32:57;;;;;;;0.10;0.10;;;16.50;99.90;;;;;;5107657;28;20543;-78
2023/06/25 01:35:24;;;;;;;0.10;0.10;;;16.60;99.90;;;;;;5109625;27;20962;-78
2023/06/25 01:37:49;;;;;;;0.10;0.10;;;16.60;99.90;;;;;;5094522;28;20492;-78
2023/06/25 01:40:16;;;;;;;0.10;0.10;;;16.60;99.90;;;;;;5095506;28;20993;-78
2023/06/25 01:42:42;;;;;;;0.10;0.10;;;16.50;99.90;;;;;;5098395;28;20188;-78
2023/06/25 01:45:09;;;;;;;0.10;0.10;;;16.40;99.90;;;;;;5107364;27;20448;-78
2023/06/25 01:47:36;;;;;;;0.10;0.10;;;16.30;99.90;;;;;;5121699;27;20993;-78
2023/06/25 01:50:02;;;;;;;0.10;0.10;;;16.30;99.90;;;;;;5112450;27;20550;-78
2023/06/25 01:52:28;;;;;;;0.10;0.10;;;16.20;99.90;;;;;;5095096;28;20487;-78
2023/06/25 01:54:54;;;;;;;0.10;0.10;;;16.30;99.90;;;;;;5108850;27;20504;-78
2023/06/25 01:57:21;;;;;;;0.10;0.10;;;16.20;99.90;;;;;;5109873;28;20953;-78
2023/06/25 01:59:46;;;;;;;0.10;0.10;;;16.20;99.90;;;;;;5109703;28;20266;-78
2023/06/25 02:02:12;;;;;;;0.10;0.10;;;16.20;99.90;;;;;;5109512;28;21070;-78
2023/06/25 02:04:37;;;;;;;0.10;0.10;;;16.10;99.90;;;;;;5111538;28;20716;-78
2023/06/25 02:07:03;;;;;;;0.10;0.10;;;16.10;99.90;;;;;;5091976;28;20531;-78
2023/06/25 02:09:29;;;;;;;0.10;0.10;;;16.10;99.90;;;;;;5112177;27;20188;-78
2023/06/25 02:11:54;;;;;;;0.10;0.10;;;16.00;99.90;;;;;;5111293;28;20187;-78
2023/06/25 02:14:20;;;;;;;0.10;0.10;;;15.90;99.90;;;;;;5111637;28;20798;-78
2023/06/25 02:16:46;;;;;;;0.10;0.10;;;16.00;99.90;;;;;;5109666;27;20188;-78
2023/06/25 02:19:11;;;;;;;0.10;0.10;;;16.00;99.90;;;;;;5093028;28;20423;-78
2023/06/25 02:21:37;;;;;;;0.10;0.10;;;15.90;99.90;;;;;;5109200;27;20226;-78
2023/06/25 02:24:02;;;;;;;0.10;0.10;;;15.80;99.90;;;;;;5109375;28;20221;-77
2023/06/25 02:26:29;;;;;;;0.10;0.10;;;15.80;99.90;;;;;;5110853;28;20320;-78
2023/06/25 02:28:55;;;;;;;0.10;0.10;;;15.80;99.90;;;;;;5094064;28;20177;-78
2023/06/25 02:31:21;;;;;;;0.10;0.10;;;16.00;99.90;;;;;;5104332;28;20442;-78
2023/06/25 02:33:46;;;;;;;0.10;0.10;;;16.20;99.90;;;;;;5109293;28;20566;-78
2023/06/25 02:36:12;;;;;;;0.10;0.10;;;16.30;99.90;;;;;;5090494;28;20434;-78
2023/06/25 02:38:38;;;;;;;0.10;0.10;;;16.30;99.90;;;;;;5100026;28;20237;-78
2023/06/25 02:41:03;;;;;;;0.10;0.10;;;16.30;99.90;;;;;;5108032;28;20220;-78
2023/06/25 02:43:29;;;;;;;0.10;0.10;;;16.20;99.90;;;;;;5092172;28;20193;-78
2023/06/25 02:45:54;;;;;;;0.10;0.10;;;16.10;99.90;;;;;;5109595;27;20182;-78
2023/06/25 02:48:20;;;;;;;0.10;0.10;;;16.00;99.90;;;;;;5108943;27;20189;-78
2023/06/25 02:50:45;;;;;;;0.10;0.10;;;16.10;99.90;;;;;;5111804;28;20181;-78
2023/06/25 02:53:11;;;;;;;0.10;0.10;;;16.20;99.90;;;;;;5092758;28;20556;-78
2023/06/25 02:55:37;;;;;;;0.10;0.10;;;16.20;99.90;;;;;;5124874;27;20538;-78
2023/06/25 02:58:02;;;;;;;0.10;0.10;;;16.10;99.90;;;;;;5110656;28;20986;-78
2023/06/25 03:00:28;;;;;;;0.10;0.10;;;16.00;99.90;;;;;;5088604;28;20238;-78
2023/06/25 03:02:54;;;;;;;0.10;0.10;;;16.00;99.90;;;;;;5106899;28;20191;-78
2023/06/25 03:05:19;;;;;;;0.10;0.10;;;16.00;99.90;;;;;;5109325;28;20200;-78
2023/06/25 03:07:59;;;;;;;0.10;0.10;;;15.90;99.90;;;;;;5091520;28;20194;-78
2023/06/25 03:10:28;;;;;;;0.10;0.10;;;15.80;99.90;;;;;;5109580;28;20208;-78
2023/06/25 03:12:55;;;;;;;0.10;0.10;;;15.80;99.90;;;;;;5091236;28;20536;-78
2023/06/25 03:15:20;;;;;;;0.10;0.10;;;15.70;99.90;;;;;;5084974;28;20873;-78
2023/06/25 03:17:46;;;;;;;0.10;0.10;;;15.70;99.90;;;;;;5093618;28;20529;-78
2023/06/25 03:20:13;;;;;;;0.10;0.10;;;15.80;99.90;;;;;;5108278;28;20204;-78
2023/06/25 03:22:39;;;;;;;0.10;0.10;;;15.70;99.90;;;;;;5108855;27;20203;-78
2023/06/25 03:25:04;;;;;;;0.10;0.10;;;15.80;99.90;;;;;;5113229;27;20458;-78
2023/06/25 03:27:31;;;;;;;0.10;0.10;;;15.70;99.90;;;;;;5110683;28;20188;-78
2023/06/25 03:29:57;;;;;;;0.10;0.10;;;15.70;99.90;;;;;;5111396;28;20426;-78
2023/06/25 03:32:22;;;;;;;0.10;0.10;;;15.70;99.90;;;;;;5106979;28;20929;-78
2023/06/25 03:34:48;;;;;;;0.10;0.10;;;15.80;99.90;;;;;;5097864;28;20202;-78
2023/06/25 03:37:13;;;;;;;0.10;0.10;;;15.80;99.90;;;;;;5110031;28;20229;-78
2023/06/25 03:39:39;;;;;;;0.10;0.10;;;15.80;99.90;;;;;;5109399;28;20277;-78
2023/06/25 03:42:05;;;;;;;0.10;0.10;;;15.80;99.90;;;;;;5108855;28;20270;-78
2023/06/25 03:44:30;;;;;;;0.10;0.10;;;15.90;99.90;;;;;;5105964;27;20195;-78
2023/06/25 03:46:56;;;;;;;0.10;0.10;;;15.90;99.90;;;;;;5108914;27;20195;-78
2023/06/25 03:49:21;;;;;;;0.10;0.10;;;16.10;99.90;;;;;;5084815;28;20609;-78
2023/06/25 03:51:47;;;;;;;0.10;0.10;;;16.40;99.90;;;;;;5102091;27;20200;-78
2023/06/25 03:54:12;;;;;;;0.10;0.10;;;16.20;99.90;;;;;;5109908;28;20328;-78
2023/06/25 03:56:38;;;;;;;0.10;0.10;;;16.30;99.90;;;;;;5110522;28;20192;-78
2023/06/25 03:59:03;;;;;;;0.00;0.00;;;16.40;99.90;;;;;;5099095;28;20268;-78
2023/06/25 04:01:29;;;;;;;0.00;0.00;;;16.40;99.90;;;;;;5096619;28;20636;-78
2023/06/25 04:03:54;;;;;;;0.10;0.10;;;16.50;99.90;;;;;;5113383;28;20206;-78
2023/06/25 04:06:21;;;;;;;0.00;0.00;;;16.30;99.90;;;;;;5088707;28;20185;-78
2023/06/25 04:08:46;;;;;;;0.00;0.00;;;16.30;99.90;;;;;;5088707;28;20180;-79
2023/06/25 04:11:12;;;;;;;0.00;0.00;;;16.30;99.90;;;;;;5086210;28;21041;-78
2023/06/25 04:13:37;;;;;;;0.00;0.00;;;16.40;99.90;;;;;;5107187;28;20241;-78
2023/06/25 04:16:03;;;;;;;0.00;0.00;;;16.60;99.90;;;;;;5105485;28;20193;-78
2023/06/25 04:18:29;;;;;;;0.00;0.00;;;16.60;99.90;;;;;;5099427;28;20259;-78
2023/06/25 04:20:55;;;;;;;0.00;0.00;;;16.50;99.90;;;;;;5085123;28;20469;-78
2023/06/25 04:23:20;;;;;;;0.00;0.00;;;16.50;99.90;;;;;;5113683;27;20255;-78
2023/06/25 04:25:46;;;;;;;0.00;0.00;;;16.40;99.90;;;;;;5094762;28;20925;-78
2023/06/25 04:28:15;;;;;;;0.00;0.00;;;16.60;99.90;;;;;;5096427;28;20184;-78
2023/06/25 04:30:41;;;;;;;0.00;0.00;;;16.50;99.90;;;;;;5112339;28;20191;-78
2023/06/25 04:33:07;;;;;;;0.00;0.00;;;16.50;99.90;;;;;;5114771;28;20840;-78
2023/06/25 04:35:33;;;;;;;0.00;0.00;;;16.50;99.90;;;;;;5094582;28;20261;-78
2023/06/25 04:37:58;;;;;;;0.00;0.00;;;16.60;99.90;;;;;;5109966;28;20800;-78
2023/06/25 04:40:24;;;;;;;0.00;0.00;;;16.60;99.90;;;;;;5094603;28;20520;-78
2023/06/25 04:42:50;;;;;;;0.00;0.00;;;16.60;99.90;;;;;;5113212;27;20464;-78
2023/06/25 04:45:15;;;;;;;0.00;0.00;;;16.60;99.90;;;;;;5111528;27;20181;-78
2023/06/25 04:47:41;;;;;;;0.00;0.00;;;16.70;99.90;;;;;;5104578;27;20192;-77
2023/06/25 04:50:06;;;;;;;0.00;0.00;;;16.80;99.90;;;;;;5111716;27;20194;-78
2023/06/25 04:52:32;;;;;;;0.00;0.00;;;16.90;99.90;;;;;;5103212;27;20179;-78
2023/06/25 04:54:57;;;;;;;0.00;0.00;;;16.90;99.90;;;;;;5099058;28;20215;-78
2023/06/25 04:57:23;;;;;;;0.10;0.10;;;16.90;99.90;;;;;;5113345;27;20253;-78
2023/06/25 04:59:49;;;;;;;0.00;0.00;;;16.90;99.90;;;;;;5112170;27;20287;-78
2023/06/25 05:02:14;;;;;;;0.03;0.03;;;17.00;99.90;;;;;;5099186;27;20216;-78
2023/06/25 05:04:40;;;;;;;0.07;0.07;;;17.30;99.90;;;;;;5106748;28;20199;-78
2023/06/25 05:07:05;;;;;;;0.00;0.00;;;17.50;99.90;;;;;;5090608;28;20180;-79
2023/06/25 05:09:31;;;;;;;0.07;0.07;;;17.70;99.90;;;;;;5105992;27;20968;-78
2023/06/25 05:11:56;;;;;;;0.00;0.00;;;17.90;99.90;;;;;;5108797;27;20184;-78
2023/06/25 05:14:22;;;;;;;0.00;0.00;;;18.10;99.90;;;;;;5110450;27;20218;-78
2023/06/25 05:16:47;;;;;;;0.00;0.00;;;18.30;99.90;;;;;;5109910;27;20181;-78
2023/06/25 05:19:13;;;;;;;0.07;0.07;;;18.50;99.90;;;;;;5106890;28;20213;-78
2023/06/25 05:21:39;;;;;;;0.00;0.00;;;18.70;99.90;;;;;;5110106;27;21166;-78
2023/06/25 05:24:04;;;;;;;0.10;0.10;;;18.70;99.90;;;;;;5110042;27;20195;-78
2023/06/25 05:26:30;;;;;;;0.00;0.00;;;18.80;99.90;;;;;;5104366;27;20192;-77
2023/06/25 05:28:56;;;;;;;0.00;0.00;;;18.90;99.90;;;;;;5104872;28;20196;-77
2023/06/25 05:31:22;;;;;;;0.10;0.10;;;19.10;99.90;;;;;;5111736;28;20223;-78
2023/06/25 05:33:47;;;;;;;0.00;0.00;;;19.20;99.90;;;;;;5090120;28;20180;-78
2023/06/25 05:36:14;;;;;;;0.00;0.00;;;19.40;99.90;;;;;;5091093;28;20275;-76
2023/06/25 05:38:39;;;;;;;0.10;0.10;;;19.40;99.90;;;;;;5103727;28;20176;-77
2023/06/25 05:41:05;;;;;;;0.00;0.00;;;19.40;99.90;;;;;;5104313;27;20487;-76
2023/06/25 05:43:31;;;;;;;0.00;0.00;;;19.60;99.90;;;;;;5097308;27;20203;-77
2023/06/25 05:45:56;;;;;;;0.10;0.10;;;19.70;99.90;;;;;;5106011;27;20747;-76
2023/06/25 05:48:22;;;;;;;0.00;0.00;;;19.80;99.90;;;;;;5110789;27;20267;-77
2023/06/25 05:50:47;;;;;;;0.00;0.00;;;19.90;99.90;;;;;;5105727;27;20184;-77
2023/06/25 05:53:13;;;;;;;0.00;0.00;;;19.90;99.90;;;;;;5109661;27;20181;-76
2023/06/25 05:55:38;;;;;;;0.03;0.00;;;20.00;99.90;;;;;;5090935;28;20211;-77
2023/06/25 05:58:04;;;;;;;0.10;0.00;;;20.10;99.90;;;;;;5109163;28;20185;-77
2023/06/25 06:00:29;;;;;;;0.03;0.00;;;20.10;99.90;;;;;;5092766;28;20247;-76
2023/06/25 06:02:55;;;;;;;0.10;0.00;;;20.30;99.90;;;;;;5085740;28;20185;-77
2023/06/25 06:05:20;;;;;;;0.03;0.00;;;20.30;99.90;;;;;;5081429;28;20549;-76
2023/06/25 06:07:46;;;;;;;0.03;0.00;;;20.40;99.90;;;;;;5109896;28;20233;-77
2023/06/25 06:10:16;;;;;;;0.00;0.00;;;20.60;99.90;;;;;;5108995;28;20176;-78
2023/06/25 06:12:41;;;;;;;0.10;0.00;;;20.60;99.90;;;;;;5106627;27;20192;-78
2023/06/25 06:15:07;;;;;;;0.10;0.00;;;20.80;99.90;;;;;;5110526;28;20502;-78
2023/06/25 06:17:33;;;;;;;0.10;0.00;;;20.80;99.90;;;;;;5111402;28;20302;-77
2023/06/25 06:19:58;;;;;;;0.07;0.00;;;20.80;99.90;;;;;;5110766;27;20180;-79
2023/06/25 06:22:24;;;;;;;0.10;0.00;;;20.80;99.90;;;;;;5107909;27;20910;-77
2023/06/25 06:24:49;;;;;;;0.10;0.00;;;20.90;99.90;;;;;;5105447;28;20280;-77
2023/06/25 06:27:15;;;;;;;0.00;0.00;;;21.00;99.90;;;;;;5111208;28;20192;-78
2023/06/25 06:29:40;;;;;;;0.07;0.00;;;21.20;99.90;;;;;;5111184;28;20185;-78
2023/06/25 06:32:06;;;;;;;0.10;0.00;;;21.40;99.90;;;;;;5109359;28;20226;-77
2023/06/25 06:34:32;;;;;;;0.10;0.00;;;21.40;99.90;;;;;;5098810;28;20189;-78
2023/06/25 06:36:58;;;;;;;0.07;0.00;;;21.40;99.90;;;;;;5090480;28;20442;-77
2023/06/25 06:39:23;;;;;;;0.07;0.00;;;21.50;99.90;;;;;;5090161;28;20176;-76
2023/06/25 06:41:48;;;;;;;0.10;0.00;;;21.30;99.90;;;;;;5103813;28;20216;-78
2023/06/25 06:44:18;;;;;;;0.10;0.00;;;21.40;99.90;;;;;;5089822;28;20218;-76
2023/06/25 06:46:45;;;;;;;0.03;0.00;;;21.50;99.90;;;;;;5104184;27;20215;-76
2023/06/25 06:49:11;;;;;;;0.10;0.00;;;21.60;99.90;;;;;;5090801;28;20415;-77
2023/06/25 06:51:38;;;;;;;0.10;0.00;;;21.70;99.90;;;;;;5110603;28;20538;-77
2023/06/25 06:54:04;;;;;;;0.10;0.00;;;21.80;99.90;;;;;;5109405;28;20460;-77
2023/06/25 06:56:30;;;;;;;0.07;0.00;;;21.80;99.90;;;;;;5111636;28;20525;-77
2023/06/25 06:58:56;;;;;;;0.00;0.00;;;22.00;99.90;;;;;;5111002;28;20500;-77
2023/06/25 07:01:22;;;;;;;0.00;0.00;;;22.10;99.90;;;;;;5104796;28;20577;-77
2023/06/25 07:03:47;;;;;;;0.00;0.00;;;22.20;99.90;;;;;;5111224;27;20744;-78
2023/06/25 07:06:13;;;;;;;0.03;0.00;;;22.30;99.90;;;;;;5107068;27;20196;-77
2023/06/25 07:08:38;;;;;;;0.00;0.00;;;22.40;99.90;;;;;;5107436;28;20208;-78
2023/06/25 07:11:04;;;;;;;0.00;0.00;;;22.30;99.90;;;;;;5103374;28;20176;-78
2023/06/25 07:13:30;;;;;;;0.00;0.00;;;22.30;99.90;;;;;;5092260;28;20193;-78
2023/06/25 07:15:55;;;;;;;0.00;0.00;;;22.30;99.90;;;;;;5110547;28;20184;-78
2023/06/25 07:18:21;;;;;;;0.10;0.00;;;22.30;99.90;;;;;;5109481;27;20465;-77
2023/06/25 07:20:46;;;;;;;0.03;0.00;;;22.40;99.90;;;;;;5122320;27;20577;-77
2023/06/25 07:23:12;;;;;;;0.10;0.00;;;22.20;99.90;;;;;;5117589;27;20191;-77
2023/06/25 07:25:37;;;;;;;0.10;0.00;;;22.50;99.90;;;;;;5114001;27;20280;-78
2023/06/25 07:28:03;;;;;;;0.10;0.00;;;22.70;99.90;;;;;;5108967;28;20656;-78
2023/06/25 07:30:29;;;;;;;0.10;0.00;;;22.70;99.90;;;;;;5107071;28;20206;-77
2023/06/25 07:32:57;;;;;;;0.10;0.00;;;22.90;99.90;;;;;;5110432;28;20181;-78
2023/06/25 07:35:22;;;;;;;0.10;0.00;;;22.70;99.90;;;;;;5109329;27;20535;-79
2023/06/25 07:37:48;;;;;;;0.03;0.00;;;23.00;99.90;;;;;;5107513;28;20595;-78
2023/06/25 07:40:13;;;;;;;0.10;0.00;;;23.00;99.90;;;;;;5125833;27;20639;-77
2023/06/25 07:42:39;;;;;;;0.00;0.00;;;23.00;99.90;;;;;;5111778;27;20310;-78
2023/06/25 07:45:05;;;;;;;0.10;0.00;;;23.00;99.90;;;;;;5108422;27;20311;-78
2023/06/25 07:47:31;;;;;;;0.10;0.00;;;22.80;99.90;;;;;;5108727;28;20180;-78
2023/06/25 07:49:56;;;;;;;0.10;0.00;;;23.00;99.90;;;;;;5092237;28;20438;-77
2023/06/25 07:52:22;;;;;;;0.00;0.00;;;23.10;99.90;;;;;;5107118;27;20640;-78
2023/06/25 07:54:47;;;;;;;0.00;0.00;;;23.40;99.90;;;;;;5096168;28;20196;-78
2023/06/25 07:57:13;;;;;;;0.00;0.00;;;23.70;99.90;;;;;;5089105;28;20188;-78
2023/06/25 07:59:38;;;;;;;0.00;0.00;;;23.50;99.90;;;;;;5093358;27;20242;-77
2023/06/25 08:02:06;;;;;;;0.00;0.00;;;23.60;99.90;;;;;;5104780;28;20313;-78
2023/06/25 08:04:32;;;;;;;0.00;0.00;;;23.70;99.90;;;;;;5091277;28;20438;-77
2023/06/25 08:06:58;;;;;;;0.00;0.00;;;23.60;99.90;;;;;;5092931;28;20500;-77
2023/06/25 08:09:23;;;;;;;0.00;0.00;;;23.70;99.90;;;;;;5108091;28;20442;-77
2023/06/25 08:11:49;;;;;;;0.00;0.00;;;24.00;99.90;;;;;;5109443;28;20184;-77
2023/06/25 08:14:14;;;;;;;0.00;0.00;;;24.10;99.90;;;;;;5088526;28;20189;-76
2023/06/25 08:16:40;;;;;;;0.00;0.00;;;23.90;99.90;;;;;;5105231;28;20192;-78
2023/06/25 08:19:05;;;;;;;0.00;0.00;;;24.10;99.90;;;;;;5089300;28;20184;-78
2023/06/25 08:21:31;;;;;;;0.00;0.00;;;23.90;99.90;;;;;;5106363;28;20220;-76
2023/06/25 08:23:56;;;;;;;0.00;0.00;;;24.00;99.90;;;;;;5106909;28;20827;-77
2023/06/25 08:26:22;;;;;;;0.00;0.00;;;23.90;99.90;;;;;;5107646;28;20225;-77
2023/06/25 08:28:47;;;;;;;0.00;0.00;;;24.30;99.90;;;;;;5105864;28;20188;-77
2023/06/25 08:31:13;;;;;;;0.00;0.00;;;24.30;99.90;;;;;;5107312;28;20188;-77
2023/06/25 08:33:38;;;;;;;0.00;0.00;;;24.60;99.90;;;;;;5087881;28;20707;-77
2023/06/25 08:36:04;;;;;;;0.00;0.00;;;24.80;99.90;;;;;;5091504;28;20195;-78
2023/06/25 08:38:31;;;;;;;0.00;0.00;;;24.80;99.90;;;;;;5104573;28;20184;-77
2023/06/25 08:40:57;;;;;;;0.00;0.00;;;25.10;99.90;;;;;;5088893;28;20220;-78
2023/06/25 08:43:23;;;;;;;0.00;0.00;;;25.20;99.90;;;;;;5090791;28;20448;-77
2023/06/25 08:45:49;;;;;;;0.00;0.00;;;25.00;99.90;;;;;;5087374;28;20212;-78
2023/06/25 08:48:16;;;;;;;0.00;0.00;;;25.00;99.90;;;;;;5107099;28;20464;-78
2023/06/25 08:50:45;;;;;;;0.00;0.00;;;24.90;99.90;;;;;;5105356;28;20187;-77
2023/06/25 08:53:11;;;;;;;0.10;0.00;;;25.00;99.90;;;;;;5122859;28;20475;-80
2023/06/25 08:55:37;;;;;;;0.00;0.00;;;25.30;99.90;;;;;;5104245;28;20437;-77
2023/06/25 08:58:03;;;;;;;0.00;0.00;;;25.60;99.90;;;;;;5091765;28;20216;-79
2023/06/25 09:00:28;;;;;;;0.00;0.00;;;25.60;99.90;;;;;;5093554;28;20515;-78
2023/06/25 09:02:54;;;;;;;0.00;0.00;;;25.60;99.90;;;;;;5083938;28;20284;-78
2023/06/25 09:05:25;;;;;;;0.00;0.00;;;25.60;99.90;;;;;;5110306;28;20187;-78
2023/06/25 09:07:51;;;;;;;0.00;0.00;;;25.60;99.90;;;;;;5108495;28;20953;-78
2023/06/25 09:10:18;;;;;;;0.00;0.00;;;25.90;99.90;;;;;;5104020;28;20445;-78
2023/06/25 09:12:48;;;;;;;0.00;0.00;;;26.10;99.90;;;;;;5111151;28;20852;-77
2023/06/25 09:15:23;;;;;;;0.00;0.00;;;26.00;99.90;;;;;;5108640;28;20426;-77
2023/06/25 09:17:53;;;;;;;0.00;0.00;;;25.90;99.90;;;;;;5100443;28;20444;-77
2023/06/25 09:20:21;;;;;;;0.00;0.00;;;25.90;99.90;;;;;;5112297;28;20430;-78
2023/06/25 09:22:55;;;;;;;0.00;0.00;;;26.40;99.90;;;;;;5114602;28;20418;-78
2023/06/25 09:25:27;;;;;;;0.00;0.00;;;26.40;99.90;;;;;;5114415;28;20520;-78
2023/06/25 09:27:52;;;;;;;0.10;0.00;;;26.60;99.90;;;;;;5106177;27;20429;-78
2023/06/25 09:30:22;;;;;;;0.10;0.00;;;26.70;99.90;;;;;;5104765;28;20442;-78
2023/06/25 09:32:55;;;;;;;0.07;0.00;;;26.70;99.90;;;;;;5093671;28;20180;-78
2023/06/25 09:35:25;;;;;;;0.10;0.00;;;26.70;99.90;;;;;;5113461;28;20418;-78
2023/06/25 09:37:52;;;;;;;0.10;0.00;;;26.80;99.90;;;;;;5114370;27;20429;-78
2023/06/25 09:40:18;;;;;;;0.10;0.00;;;26.90;99.90;;;;;;5094791;28;20534;-78
2023/06/25 09:42:44;;;;;;;0.10;0.00;;;27.00;99.90;;;;;;5110959;27;20453;-78
2023/06/25 09:45:14;;;;;;;0.10;0.00;;;27.10;99.90;;;;;;5099639;27;20781;-78
2023/06/25 09:47:45;;;;;;;0.10;0.00;;;27.30;99.90;;;;;;5102217;27;20451;-78
2023/06/25 09:50:18;;;;;;;0.00;0.00;;;27.30;99.90;;;;;;5103785;27;21079;-78
2023/06/25 09:52:50;;;;;;;0.10;0.00;;;27.80;99.90;;;;;;5097005;27;21214;-75
2023/06/25 09:55:16;;;;;;;0.10;0.00;;;27.40;99.90;;;;;;5112169;27;20434;-76
2023/06/25 09:57:42;;;;;;;0.10;0.00;;;26.80;99.90;;;;;;5093468;28;20438;-75
2023/06/25 10:00:10;;;;;;;0.03;0.00;;;26.70;99.90;;;;;;5108736;28;20495;-76
2023/06/25 10:02:36;;;;;;;0.10;0.00;;;27.20;99.90;;;;;;5095837;27;20633;-76
2023/06/25 10:05:02;;;;;;;0.10;0.00;;;27.60;99.90;;;;;;5120885;27;20442;-75
2023/06/25 10:07:28;;;;;;;0.00;0.00;;;27.30;99.90;;;;;;5093610;28;20532;-76
2023/06/25 10:09:55;;;;;;;0.00;0.00;;;27.10;99.90;;;;;;5103401;27;20205;-78
2023/06/25 10:12:20;;;;;;;0.00;0.00;;;27.20;99.90;;;;;;5091932;28;20442;-78
2023/06/25 10:14:47;;;;;;;0.00;0.00;;;27.80;99.90;;;;;;5094138;28;20439;-78
2023/06/25 10:17:13;;;;;;;0.00;0.00;;;27.90;99.90;;;;;;5086656;28;20230;-77
2023/06/25 10:19:38;;;;;;;0.00;0.00;;;27.60;99.90;;;;;;5097650;27;20434;-77
2023/06/25 10:22:15;;;;;;;0.00;0.00;;;27.30;99.90;;;;;;5104741;27;20948;-78
2023/06/25 10:24:51;;;;;;;0.00;0.00;;;27.30;99.90;;;;;;5091352;28;20180;-78
2023/06/25 10:27:29;;;;;;;0.00;0.00;;;28.60;99.90;;;;;;5107040;28;20458;-75
2023/06/25 10:29:57;;;;;;;0.00;0.00;;;29.20;99.90;;;;;;5089157;28;20987;-76
2023/06/25 10:32:24;;;;;;;0.00;0.00;;;28.80;99.90;;;;;;5108113;28;20796;-75
2023/06/25 10:35:00;;;;;;;0.00;0.00;;;28.40;99.90;;;;;;5089480;28;20885;-76
2023/06/25 10:37:34;;;;;;;0.00;0.00;;;28.90;99.90;;;;;;5083324;28;20488;-76
2023/06/25 10:40:01;;;;;;;0.10;0.00;;;28.40;99.90;;;;;;5081939;28;20904;-76
2023/06/25 10:42:29;;;;;;;0.00;0.00;;;27.50;99.90;;;;;;5103910;27;20503;-80
2023/06/25 10:44:55;;;;;;;0.00;0.00;;;26.90;99.90;;;;;;5106861;27;20465;-79
2023/06/25 10:47:20;;;;;;;0.10;0.00;;;27.20;99.90;;;;;;5092753;28;20485;-80
2023/06/25 10:49:46;;;;;;;0.00;0.00;;;27.10;99.90;;;;;;5088562;28;20616;-79
2023/06/25 10:52:11;;;;;;;0.10;0.00;;;27.00;99.90;;;;;;5082450;28;20180;-79
2023/06/25 10:54:37;;;;;;;0.00;0.00;;;27.10;99.90;;;;;;5070800;28;20218;-79
2023/06/25 10:57:07;;;;;;;0.00;0.00;;;27.00;99.90;;;;;;5100618;27;20244;-79
2023/06/25 10:59:33;;;;;;;0.07;0.00;;;28.00;99.90;;;;;;5109827;28;20555;-77
2023/06/25 11:02:17;;;;;;;0.00;0.00;;;28.40;99.90;;;;;;5112094;27;20477;-76
2023/06/25 11:04:50;;;;;;;0.10;0.00;;;29.80;99.90;;;;;;5114877;27;20422;-77
2023/06/25 11:07:15;;;;;;;0.10;0.00;;;30.30;99.90;;;;;;5091176;28;20420;-76
2023/06/25 11:09:42;;;;;;;0.10;0.00;;;30.50;99.70;;;;;;5091361;28;20499;-77
2023/06/25 11:12:08;;;;;;;0.10;0.00;;;30.40;97.40;;;;;;5091522;28;20176;-78
2023/06/25 11:14:33;;;;;;;0.10;0.00;;;31.00;99.30;;;;;;5108153;27;20839;-77
2023/06/25 11:16:59;;;;;;;0.10;0.00;;;32.00;96.90;;;;;;5114998;27;20626;-76
2023/06/25 11:19:29;;;;;;;0.10;0.00;;;32.40;95.00;;;;;;5099645;28;20207;-74
2023/06/25 11:21:54;;;;;;;0.10;0.00;;;32.50;94.20;;;;;;5099299;28;20285;-76
2023/06/25 11:24:20;;;;;;;0.10;0.00;;;32.10;94.70;;;;;;5101509;28;20451;-76
2023/06/25 11:26:46;;;;;;;0.10;0.00;;;32.20;94.90;;;;;;5104629;28;20172;-75
2023/06/25 11:29:12;;;;;;;0.00;0.00;;;32.60;94.50;;;;;;5089699;28;20639;-74
2023/06/25 11:31:45;;;;;;;0.00;0.00;;;31.70;94.00;;;;;;5109841;27;20188;-74
2023/06/25 11:34:24;;;;;;;0.00;0.00;;;31.90;94.80;;;;;;5101100;28;20180;-75
2023/06/25 11:36:50;;;;;;;0.00;0.00;;;31.60;95.00;;;;;;5095685;28;20487;-76
2023/06/25 11:39:15;;;;;;;0.00;0.00;;;32.00;94.20;;;;;;5110398;27;20487;-75
2023/06/25 11:41:43;;;;;;;0.00;0.00;;;31.90;96.20;;;;;;5121330;27;20213;-76
2023/06/25 11:44:18;;;;;;;0.00;0.00;;;32.30;95.10;;;;;;5116410;27;20229;-75
2023/06/25 11:46:51;;;;;;;0.00;0.00;;;32.60;96.30;;;;;;5083946;28;20449;-75
2023/06/25 11:49:18;;;;;;;0.00;0.00;;;32.50;95.60;;;;;;5093108;28;20541;-74
2023/06/25 11:51:44;;;;;;;0.10;0.00;;;31.90;97.00;;;;;;5106737;28;20497;-74
2023/06/25 11:54:10;;;;;;;0.00;0.00;;;31.30;97.20;;;;;;5088913;28;20430;-74
2023/06/25 11:56:36;;;;;;;0.00;0.00;;;31.00;97.50;;;;;;5102817;28;20449;-74
2023/06/25 11:59:01;;;;;;;0.00;0.00;;;30.30;98.10;;;;;;5086670;28;20176;-74
2023/06/25 12:01:29;;;;;;;0.00;0.00;;;29.80;98.80;;;;;;5093495;28;20233;-76
2023/06/25 12:03:54;;;;;;;0.00;0.00;;;29.10;98.90;;;;;;5052376;28;20191;-77
2023/06/25 12:06:20;;;;;;;0.10;0.00;;;28.70;99.90;;;;;;5047353;28;20459;-77
2023/06/25 12:08:45;;;;;;;0.10;0.00;;;28.60;99.90;;;;;;5065211;28;20522;-77
2023/06/25 12:11:11;;;;;;;0.10;0.00;;;28.10;99.90;;;;;;5056146;28;20190;-77
2023/06/25 12:13:36;;;;;;;0.10;0.00;;;27.80;99.90;;;;;;5061671;28;20193;-77
2023/06/25 12:16:02;;;;;;;0.10;0.00;;;27.80;99.90;;;;;;5063636;28;20235;-75
2023/06/25 12:18:27;;;;;;;0.10;0.00;;;28.50;99.90;;;;;;5062642;28;20182;-76
2023/06/25 12:20:53;;;;;;;0.10;0.00;;;28.90;99.90;;;;;;5063937;28;20693;-76
2023/06/25 12:23:19;;;;;;;0.10;0.00;;;28.60;99.70;;;;;;5059377;28;20265;-75
2023/06/25 12:25:44;;;;;;;0.10;0.00;;;28.60;99.90;;;;;;5060493;28;20190;-76
2023/06/25 12:28:10;;;;;;;0.10;0.00;;;28.70;99.50;;;;;;5061691;28;20194;-75
2023/06/25 12:30:35;;;;;;;0.10;0.00;;;28.90;99.10;;;;;;5063343;28;20642;-75
2023/06/25 12:33:01;;;;;;;0.10;0.00;;;28.40;98.50;;;;;;5063790;28;20192;-76
2023/06/25 12:35:28;;;;;;;0.10;0.00;;;28.30;99.90;;;;;;5053899;28;20849;-76
2023/06/25 12:37:53;;;;;;;0.10;0.00;;;28.30;99.90;;;;;;5053432;28;20816;-76
2023/06/25 12:40:19;;;;;;;0.10;0.00;;;27.90;99.90;;;;;;5056934;28;20436;-76
2023/06/25 12:42:45;;;;;;;0.10;0.00;;;27.80;99.90;;;;;;5065903;28;20222;-76
2023/06/25 12:45:10;;;;;;;0.10;0.00;;;27.80;99.90;;;;;;5056424;28;20209;-76